createdAt,value
2022-12-24T00:00:59.739Z,20.92
2022-12-24T00:03:27.377Z,22.55
2022-12-24T00:05:55.037Z,23.45
2022-12-24T00:08:22.675Z,24.20
2022-12-24T00:10:52.055Z,27.20
2022-12-24T00:13:20.537Z,26.60
2022-12-24T00:15:48.261Z,37.55
2022-12-24T00:18:17.179Z,45.78
2022-12-24T00:20:47.029Z,43.55
2022-12-24T00:23:14.676Z,37.58
2022-12-24T00:25:42.297Z,42.97
2022-12-24T00:28:09.912Z,40.13
2022-12-24T00:30:39.252Z,36.85
2022-12-24T00:33:07.358Z,41.47
2022-12-24T00:35:36.651Z,39.45
2022-12-24T00:38:04.351Z,41.83
2022-12-24T00:40:32.363Z,43.67
2022-12-24T00:43:00.104Z,39.00
2022-12-24T00:45:27.978Z,44.70
2022-12-24T00:47:55.803Z,37.95
2022-12-24T00:50:23.429Z,34.03
2022-12-24T00:52:52.356Z,42.78
2022-12-24T00:55:20.729Z,45.28
2022-12-24T00:57:48.334Z,44.00
2022-12-24T01:00:17.861Z,36.03
2022-12-24T01:02:45.703Z,43.95
2022-12-24T01:05:12.964Z,44.08
2022-12-24T01:07:42.275Z,41.03
2022-12-24T01:10:12.432Z,51.75
2022-12-24T01:12:40.469Z,41.60
2022-12-24T01:15:08.963Z,43.17
2022-12-24T01:17:36.913Z,42.13
2022-12-24T01:20:05.362Z,47.22
2022-12-24T01:22:32.973Z,45.08
2022-12-24T01:25:00.550Z,37.20
2022-12-24T01:27:29.489Z,47.38
2022-12-24T01:29:57.070Z,41.95
2022-12-24T01:32:24.689Z,39.87
2022-12-24T01:34:52.281Z,42.93
2022-12-24T01:37:19.899Z,39.22
2022-12-24T01:39:47.499Z,42.00
2022-12-24T01:42:37.893Z,39.28
2022-12-24T01:45:44.466Z,34.85
2022-12-24T01:48:22.547Z,42.95
2022-12-24T01:50:52.538Z,36.83
2022-12-24T01:53:20.208Z,40.72
2022-12-24T01:55:48.301Z,42.88
2022-12-24T01:58:17.625Z,39.22
2022-12-24T02:00:46.625Z,44.83
2022-12-24T02:03:14.266Z,40.13
2022-12-24T02:05:47.946Z,44.42
2022-12-24T02:08:16.386Z,41.10
2022-12-24T02:10:44.037Z,45.25
2022-12-24T02:13:12.040Z,41.30
2022-12-24T02:15:48.787Z,49.15
2022-12-24T02:18:22.124Z,44.90
2022-12-24T02:21:23.321Z,47.95
2022-12-24T02:24:27.069Z,41.60
2022-12-24T02:27:04.079Z,44.67
2022-12-24T02:29:50.106Z,42.33
2022-12-24T02:32:20.884Z,40.10
2022-12-24T02:34:52.673Z,45.37
2022-12-24T02:37:23.839Z,42.65
2022-12-24T02:39:54.880Z,39.05
2022-12-24T02:42:26.942Z,50.40
2022-12-24T02:45:00.013Z,43.63
2022-12-24T02:47:28.619Z,44.03
2022-12-24T02:49:56.245Z,41.22
2022-12-24T02:52:34.387Z,49.08
2022-12-24T02:55:09.351Z,41.47
2022-12-24T02:57:45.645Z,43.60
2022-12-24T03:00:17.703Z,40.08
2022-12-24T03:02:57.955Z,44.20
2022-12-24T03:05:31.140Z,37.85
2022-12-24T03:08:03.960Z,39.17
2022-12-24T03:10:35.907Z,41.33
2022-12-24T03:13:07.347Z,42.97
2022-12-24T03:15:37.628Z,38.88
2022-12-24T03:18:07.717Z,37.78
2022-12-24T03:20:37.566Z,46.90
2022-12-24T03:23:05.445Z,39.75
2022-12-24T03:25:34.757Z,45.08
2022-12-24T03:28:04.473Z,39.67
2022-12-24T03:30:32.131Z,35.95
2022-12-24T03:33:01.234Z,38.85
2022-12-24T03:35:28.866Z,43.60
2022-12-24T03:37:56.726Z,31.33
2022-12-24T03:40:24.282Z,34.28
2022-12-24T03:42:52.065Z,42.65
2022-12-24T03:45:19.900Z,36.25
2022-12-24T03:47:47.426Z,37.03
2022-12-24T03:50:16.393Z,31.52
2022-12-24T03:52:44.057Z,36.97
2022-12-24T03:55:11.682Z,41.47
2022-12-24T03:57:39.361Z,38.13
2022-12-24T04:00:08.137Z,33.75
2022-12-24T04:02:35.801Z,49.97
2022-12-24T04:05:03.491Z,30.50
2022-12-24T04:07:33.342Z,36.10
2022-12-24T04:10:00.975Z,40.42
2022-12-24T04:12:28.584Z,40.00
2022-12-24T04:14:56.151Z,34.65
2022-12-24T04:17:23.721Z,38.65
2022-12-24T04:19:51.377Z,39.80
2022-12-24T04:22:20.269Z,41.47
2022-12-24T04:24:49.302Z,35.03
2022-12-24T04:27:17.445Z,37.03
2022-12-24T04:29:45.064Z,34.83
2022-12-24T04:32:12.740Z,47.58
2022-12-24T04:34:40.410Z,39.75
2022-12-24T04:37:07.985Z,40.25
2022-12-24T04:39:35.725Z,39.35
2022-12-24T04:42:04.854Z,40.63
2022-12-24T04:44:32.463Z,40.88
2022-12-24T04:47:00.102Z,39.97
2022-12-24T04:49:27.794Z,48.47
2022-12-24T04:51:55.414Z,41.72
2022-12-24T04:54:22.989Z,43.30
2022-12-24T04:56:50.623Z,36.50
2022-12-24T04:59:19.518Z,42.10
2022-12-24T05:01:47.151Z,36.88
2022-12-24T05:04:14.888Z,41.67
2022-12-24T05:06:42.639Z,32.33
2022-12-24T05:09:10.219Z,47.55
2022-12-24T05:11:37.816Z,31.58
2022-12-24T05:14:05.496Z,40.80
2022-12-24T05:16:34.502Z,41.55
2022-12-24T05:19:02.112Z,40.47
2022-12-24T05:21:29.711Z,34.70
2022-12-24T05:24:15.061Z,38.33
2022-12-24T05:26:45.224Z,41.35
2022-12-24T05:29:13.315Z,46.65
2022-12-24T05:31:43.359Z,40.58
2022-12-24T05:34:11.361Z,38.58
2022-12-24T05:36:39.368Z,38.78
2022-12-24T05:39:13.372Z,41.30
2022-12-24T05:41:43.300Z,35.95
2022-12-24T05:44:10.896Z,43.78
2022-12-24T05:46:38.565Z,32.83
2022-12-24T05:49:07.581Z,37.58
2022-12-24T05:51:35.283Z,35.55
2022-12-24T05:54:02.893Z,35.47
2022-12-24T05:56:30.486Z,39.58
2022-12-24T05:58:58.028Z,38.85
2022-12-24T06:01:25.991Z,33.58
2022-12-24T06:03:54.338Z,33.38
2022-12-24T06:06:25.196Z,37.75
2022-12-24T06:08:53.799Z,40.25
2022-12-24T06:11:22.764Z,38.50
2022-12-24T06:13:50.858Z,39.30
2022-12-24T06:16:19.980Z,41.58
2022-12-24T06:18:48.026Z,36.57
2022-12-24T06:21:16.129Z,34.00
2022-12-24T06:23:45.857Z,37.20
2022-12-24T06:26:15.070Z,36.97
2022-12-24T06:28:42.871Z,34.67
2022-12-24T06:31:13.978Z,34.60
2022-12-24T06:33:41.643Z,36.60
2022-12-24T06:36:16.695Z,35.33
2022-12-24T06:38:46.647Z,30.35
2022-12-24T06:41:14.303Z,31.00
2022-12-24T06:43:44.857Z,35.20
2022-12-24T06:46:12.482Z,34.95
2022-12-24T06:48:40.089Z,35.20
2022-12-24T06:51:07.757Z,36.08
2022-12-24T06:53:35.439Z,33.78
2022-12-24T06:56:04.719Z,27.70
2022-12-24T06:58:32.369Z,35.78
2022-12-24T07:01:02.296Z,31.40
2022-12-24T07:03:30.202Z,34.38
2022-12-24T07:05:57.955Z,34.47
2022-12-24T07:08:25.567Z,38.60
2022-12-24T07:10:54.553Z,43.90
2022-12-24T07:13:23.716Z,41.67
2022-12-24T07:15:58.659Z,32.72
2022-12-24T07:18:26.351Z,34.97
2022-12-24T07:20:54.055Z,35.55
2022-12-24T07:23:22.676Z,35.42
2022-12-24T07:25:50.350Z,35.58
2022-12-24T07:28:21.032Z,29.58
2022-12-24T07:30:54.726Z,34.55
2022-12-24T07:33:22.387Z,35.95
2022-12-24T07:35:55.730Z,33.72
2022-12-24T07:38:23.585Z,32.97
2022-12-24T07:40:51.166Z,37.10
2022-12-24T07:43:18.775Z,37.38
2022-12-24T07:45:46.397Z,33.83
2022-12-24T07:48:15.428Z,37.28
2022-12-24T07:50:43.088Z,40.05
2022-12-24T07:53:10.753Z,37.38
2022-12-24T07:55:38.300Z,37.92
2022-12-24T07:58:05.890Z,39.50
2022-12-24T08:00:33.517Z,38.72
2022-12-24T08:03:01.256Z,40.60
2022-12-24T08:05:30.286Z,40.92
2022-12-24T08:07:58.592Z,41.15
2022-12-24T08:10:26.136Z,33.90
2022-12-24T08:12:53.648Z,41.97
2022-12-24T08:15:21.236Z,38.08
2022-12-24T08:17:48.772Z,41.03
2022-12-24T08:20:17.269Z,41.13
2022-12-24T08:22:46.139Z,40.10
2022-12-24T08:25:13.684Z,38.67
2022-12-24T08:27:41.292Z,38.22
2022-12-24T08:30:10.169Z,37.50
2022-12-24T08:32:37.799Z,34.73
2022-12-24T08:35:05.998Z,36.33
2022-12-24T08:37:33.596Z,49.80
2022-12-24T08:40:02.559Z,40.28
2022-12-24T08:42:30.183Z,39.83
2022-12-24T08:44:57.763Z,40.90
2022-12-24T08:47:25.306Z,36.53
2022-12-24T08:49:52.907Z,34.60
2022-12-24T08:52:20.479Z,44.33
2022-12-24T08:54:48.061Z,37.15
2022-12-24T08:57:17.058Z,37.72
2022-12-24T08:59:44.597Z,41.55
2022-12-24T09:02:13.229Z,36.63
2022-12-24T09:04:41.296Z,35.33
2022-12-24T09:07:09.395Z,37.25
2022-12-24T09:09:38.230Z,38.88
2022-12-24T09:12:06.877Z,36.92
2022-12-24T09:14:35.923Z,42.42
2022-12-24T09:17:03.585Z,30.38
2022-12-24T09:19:31.219Z,39.60
2022-12-24T09:21:59.091Z,34.90
2022-12-24T09:24:26.668Z,31.17
2022-12-24T09:26:57.925Z,32.13
2022-12-24T09:29:25.923Z,33.38
2022-12-24T09:31:56.241Z,33.92
2022-12-24T09:34:29.931Z,25.73
2022-12-24T09:36:57.996Z,36.63
2022-12-24T09:39:25.534Z,29.27
2022-12-24T09:41:57.544Z,32.15
2022-12-24T09:44:37.832Z,34.43
2022-12-24T09:47:12.195Z,33.40
2022-12-24T09:49:42.039Z,33.10
2022-12-24T09:52:12.106Z,30.08
2022-12-24T09:54:47.702Z,30.15
2022-12-24T09:57:21.265Z,30.55
2022-12-24T09:59:48.948Z,27.15
2022-12-24T10:02:19.496Z,30.38
2022-12-24T10:04:48.717Z,32.25
2022-12-24T10:07:29.768Z,26.67
2022-12-24T10:10:05.058Z,29.40
2022-12-24T10:12:37.681Z,26.50
2022-12-24T10:15:11.833Z,26.47
2022-12-24T10:17:49.657Z,22.83
2022-12-24T10:20:28.814Z,28.77
2022-12-24T10:23:00.465Z,26.07
2022-12-24T10:25:31.724Z,24.83
2022-12-24T10:28:01.938Z,24.45
2022-12-24T10:30:29.940Z,25.43
2022-12-24T10:32:58.967Z,26.80
2022-12-24T10:35:29.055Z,23.77
2022-12-24T10:37:57.962Z,23.27
2022-12-24T10:40:30.619Z,25.05
2022-12-24T10:42:58.318Z,24.63
2022-12-24T10:45:28.405Z,26.85
2022-12-24T10:47:57.089Z,26.58
2022-12-24T10:50:31.095Z,23.75
2022-12-24T10:53:03.142Z,23.25
2022-12-24T10:55:30.711Z,22.83
2022-12-24T10:58:02.222Z,30.87
2022-12-24T11:00:35.878Z,24.77
2022-12-24T11:03:09.916Z,22.98
2022-12-24T11:05:40.340Z,24.48
2022-12-24T11:08:17.067Z,21.30
2022-12-24T11:10:55.717Z,22.48
2022-12-24T11:13:41.930Z,21.05
2022-12-24T11:16:16.180Z,22.10
2022-12-24T11:18:51.376Z,23.42
2022-12-24T11:21:25.979Z,20.53
2022-12-24T11:23:55.828Z,25.35
2022-12-24T11:26:25.604Z,26.15
2022-12-24T11:29:15.749Z,20.15
2022-12-24T11:31:43.730Z,20.77
2022-12-24T11:34:25.992Z,21.88
2022-12-24T11:36:58.122Z,18.02
2022-12-24T11:39:26.875Z,19.70
2022-12-24T11:41:55.135Z,20.63
2022-12-24T11:44:26.542Z,20.58
2022-12-24T11:46:56.870Z,20.33
2022-12-24T11:49:26.583Z,18.77
2022-12-24T11:52:22.785Z,22.90
2022-12-24T11:55:03.374Z,16.75
2022-12-24T11:57:35.868Z,19.42
2022-12-24T12:00:03.878Z,19.63
2022-12-24T12:02:34.577Z,18.50
2022-12-24T12:05:06.787Z,16.52
2022-12-24T12:07:36.938Z,16.60
2022-12-24T12:10:06.534Z,20.73
2022-12-24T12:12:37.481Z,17.92
2022-12-24T12:15:12.051Z,17.77
2022-12-24T12:17:44.984Z,15.38
2022-12-24T12:20:16.126Z,17.65
2022-12-24T12:22:51.929Z,16.13
2022-12-24T12:25:23.117Z,18.00
2022-12-24T12:27:52.776Z,16.00
2022-12-24T12:30:22.590Z,20.30
2022-12-24T12:32:54.611Z,18.15
2022-12-24T12:35:26.305Z,16.65
2022-12-24T12:37:58.473Z,17.25
2022-12-24T12:40:33.913Z,17.23
2022-12-24T12:43:14.090Z,19.58
2022-12-24T12:45:45.375Z,15.02
2022-12-24T12:48:22.663Z,14.43
2022-12-24T12:50:54.441Z,15.20
2022-12-24T12:53:33.794Z,15.23
2022-12-24T12:56:09.136Z,17.90
2022-12-24T12:58:38.853Z,15.27
2022-12-24T13:01:14.493Z,19.52
2022-12-24T13:03:56.932Z,16.53
2022-12-24T13:06:43.541Z,16.35
2022-12-24T13:09:24.023Z,16.67
2022-12-24T13:12:04.995Z,16.42
2022-12-24T13:14:52.715Z,17.80
2022-12-24T13:17:34.156Z,17.08
2022-12-24T13:20:14.674Z,18.93
2022-12-24T13:22:49.628Z,18.23
2022-12-24T13:25:24.602Z,18.33
2022-12-24T13:27:52.156Z,19.27
2022-12-24T13:30:37.911Z,18.70
2022-12-24T13:33:06.442Z,20.43
2022-12-24T13:35:38.247Z,16.80
2022-12-24T13:38:43.500Z,18.42
2022-12-24T13:41:53.868Z,17.05
2022-12-24T13:44:32.666Z,17.10
2022-12-24T13:47:25.331Z,14.85
2022-12-24T13:49:56.841Z,16.67
2022-12-24T13:52:26.474Z,19.15
2022-12-24T13:55:16.372Z,18.88
2022-12-24T13:57:48.340Z,19.05
2022-12-24T14:00:33.757Z,19.00
2022-12-24T14:03:06.426Z,16.17
2022-12-24T14:05:36.331Z,18.88
2022-12-24T14:08:07.142Z,17.90
2022-12-24T14:10:39.884Z,19.90
2022-12-24T14:13:10.074Z,19.60
2022-12-24T14:16:06.363Z,18.10
2022-12-24T14:18:38.760Z,19.58
2022-12-24T14:21:07.286Z,25.50
2022-12-24T14:23:42.348Z,19.70
2022-12-24T14:26:16.280Z,17.55
2022-12-24T14:28:47.134Z,26.88
2022-12-24T14:31:18.495Z,21.70
2022-12-24T14:33:46.444Z,21.92
2022-12-24T14:36:15.868Z,19.27
2022-12-24T14:38:44.918Z,25.42
2022-12-24T14:41:23.272Z,21.70
2022-12-24T14:43:57.185Z,23.23
2022-12-24T14:46:32.887Z,22.58
2022-12-24T14:49:06.093Z,29.75
2022-12-24T14:51:37.345Z,25.98
2022-12-24T14:54:32.786Z,34.03
2022-12-24T14:57:12.273Z,29.98
2022-12-24T14:59:44.968Z,30.67
2022-12-24T15:02:32.389Z,28.00
2022-12-24T15:05:08.360Z,28.65
2022-12-24T15:07:41.947Z,24.05
2022-12-24T15:10:27.788Z,21.85
2022-12-24T15:12:56.773Z,26.33
2022-12-24T15:15:24.578Z,25.35
2022-12-24T15:17:53.655Z,26.25
2022-12-24T15:20:24.597Z,26.70
2022-12-24T15:22:54.196Z,27.55
2022-12-24T15:25:24.383Z,25.17
2022-12-24T15:27:52.478Z,27.55
2022-12-24T15:30:22.507Z,27.67
2022-12-24T15:32:52.727Z,28.20
2022-12-24T15:35:52.167Z,28.00
2022-12-24T15:38:26.166Z,24.40
2022-12-24T15:40:54.346Z,27.65
2022-12-24T15:43:22.122Z,28.80
2022-12-24T15:45:50.078Z,29.35
2022-12-24T15:48:23.580Z,25.77
2022-12-24T15:50:53.461Z,31.40
2022-12-24T15:53:25.031Z,30.17
2022-12-24T15:56:09.605Z,29.60
2022-12-24T15:58:38.960Z,29.08
2022-12-24T16:01:26.368Z,28.98
2022-12-24T16:04:00.320Z,27.52
2022-12-24T16:06:29.158Z,26.95
2022-12-24T16:09:00.082Z,27.70
2022-12-24T16:11:35.304Z,24.23
2022-12-24T16:14:10.377Z,25.77
2022-12-24T16:16:40.154Z,29.33
2022-12-24T16:19:17.476Z,28.27
2022-12-24T16:21:45.395Z,27.30
2022-12-24T16:24:17.494Z,31.45
2022-12-24T16:26:45.295Z,35.90
2022-12-24T16:29:13.324Z,38.15
2022-12-24T16:31:52.233Z,38.47
2022-12-24T16:34:23.468Z,31.17
2022-12-24T16:36:51.084Z,29.17
2022-12-24T16:39:28.386Z,36.53
2022-12-24T16:42:15.138Z,31.90
2022-12-24T16:44:43.310Z,31.90
2022-12-24T16:47:13.254Z,36.30
2022-12-24T16:49:42.735Z,35.80
2022-12-24T16:52:18.516Z,36.15
2022-12-24T16:54:46.130Z,40.77
2022-12-24T16:57:13.730Z,45.07
2022-12-24T16:59:41.395Z,41.75
2022-12-24T17:02:14.812Z,47.67
2022-12-24T17:04:44.736Z,47.47
2022-12-24T17:07:12.917Z,48.28
2022-12-24T17:09:40.589Z,39.00
2022-12-24T17:12:08.457Z,48.40
2022-12-24T17:14:36.096Z,54.50
2022-12-24T17:17:04.437Z,61.03
2022-12-24T17:19:32.296Z,53.97
2022-12-24T17:22:01.268Z,51.50
2022-12-24T17:24:28.896Z,44.75
2022-12-24T17:26:56.549Z,54.63
2022-12-24T17:29:24.178Z,42.25
2022-12-24T17:31:51.891Z,52.22
2022-12-24T17:34:19.438Z,49.70
2022-12-24T17:36:47.049Z,47.63
2022-12-24T17:39:16.017Z,45.95
2022-12-24T17:41:43.794Z,43.92
2022-12-24T17:44:13.070Z,54.53
2022-12-24T17:46:40.844Z,45.40
2022-12-24T17:49:09.114Z,48.78
2022-12-24T17:51:41.584Z,45.40
2022-12-24T17:54:12.751Z,52.03
2022-12-24T17:56:41.810Z,48.67
2022-12-24T17:59:09.459Z,46.63
2022-12-24T18:01:37.143Z,51.40
2022-12-24T18:04:05.093Z,48.92
2022-12-24T18:06:32.789Z,55.28
2022-12-24T18:09:00.411Z,48.70
2022-12-24T18:11:30.479Z,55.33
2022-12-24T18:14:00.939Z,49.58
2022-12-24T18:16:30.472Z,50.28
2022-12-24T18:18:58.720Z,47.28
2022-12-24T18:21:28.287Z,47.58
2022-12-24T18:23:56.656Z,43.47
2022-12-24T18:26:25.251Z,47.47
2022-12-24T18:28:54.109Z,54.00
2022-12-24T18:31:23.728Z,48.92
2022-12-24T18:33:52.305Z,50.30
2022-12-24T18:36:20.635Z,53.13
2022-12-24T18:38:48.375Z,46.33
2022-12-24T18:41:17.873Z,49.63
2022-12-24T18:43:45.482Z,53.25
2022-12-24T18:46:14.526Z,51.63
2022-12-24T18:48:44.041Z,49.95
2022-12-24T18:51:11.740Z,48.88
2022-12-24T18:53:39.878Z,52.90
2022-12-24T18:56:08.968Z,48.28
2022-12-24T18:58:37.885Z,58.65
2022-12-24T19:01:11.830Z,59.83
2022-12-24T19:03:39.545Z,50.53
2022-12-24T19:06:09.079Z,56.75
2022-12-24T19:11:25.175Z,59.25
2022-12-24T19:13:52.806Z,54.15
2022-12-24T19:16:20.978Z,63.67
2022-12-24T19:18:48.762Z,72.22
2022-12-24T19:21:18.664Z,57.65
2022-12-24T19:23:46.773Z,61.05
2022-12-24T19:26:15.658Z,67.28
2022-12-24T19:28:43.743Z,53.87
2022-12-24T19:31:12.877Z,63.20
2022-12-24T19:33:43.269Z,65.13
2022-12-24T19:36:13.139Z,56.13
2022-12-24T19:38:42.589Z,59.07
2022-12-24T19:41:13.234Z,56.35
2022-12-24T19:43:43.386Z,59.45
2022-12-24T19:46:12.574Z,65.13
2022-12-24T19:48:40.362Z,62.10
2022-12-24T19:51:10.073Z,81.00
2022-12-24T19:53:38.605Z,69.65
2022-12-24T19:56:08.862Z,65.53
2022-12-24T19:58:37.001Z,65.70
2022-12-24T20:01:14.827Z,71.53
2022-12-24T20:03:43.519Z,75.85
2022-12-24T20:06:11.462Z,70.47
2022-12-24T20:08:39.726Z,70.23
2022-12-24T20:11:10.968Z,65.80
2022-12-24T20:13:39.860Z,55.70
2022-12-24T20:16:08.981Z,60.90
2022-12-24T20:18:36.916Z,62.47
2022-12-24T20:21:06.853Z,62.70
2022-12-24T20:23:35.807Z,62.50
2022-12-24T20:26:05.785Z,56.73
2022-12-24T20:28:36.292Z,67.13
2022-12-24T20:31:10.766Z,69.50
2022-12-24T20:33:38.454Z,62.45
2022-12-24T20:36:06.543Z,75.63
2022-12-24T20:38:34.194Z,73.78
2022-12-24T20:41:01.796Z,76.30
2022-12-24T20:43:35.329Z,62.33
2022-12-24T20:46:06.945Z,68.72
2022-12-24T20:48:35.233Z,66.53
2022-12-24T20:51:06.767Z,69.30
2022-12-24T20:53:34.604Z,61.03
2022-12-24T20:56:02.295Z,59.05
2022-12-24T20:58:29.966Z,76.63
2022-12-24T21:00:57.720Z,67.22
2022-12-24T21:03:26.899Z,74.22
2022-12-24T21:05:54.499Z,75.00
2022-12-24T21:08:22.139Z,69.80
2022-12-24T21:11:09.724Z,82.93
2022-12-24T21:13:36.378Z,73.40
2022-12-24T21:16:03.968Z,73.60
2022-12-24T21:18:32.889Z,75.38
2022-12-24T21:21:00.499Z,71.35
2022-12-24T21:23:28.309Z,76.53
2022-12-24T21:26:00.125Z,75.47
2022-12-24T21:28:28.449Z,69.65
2022-12-24T21:30:57.328Z,73.75
2022-12-24T21:33:25.013Z,67.38
2022-12-24T21:35:59.844Z,80.25
2022-12-24T21:38:27.651Z,65.53
2022-12-24T21:40:59.996Z,73.97
2022-12-24T21:43:28.393Z,76.63
2022-12-24T21:45:56.100Z,71.72
2022-12-24T21:48:37.718Z,69.22
2022-12-24T21:51:07.328Z,70.22
2022-12-24T21:53:52.340Z,71.75
2022-12-24T21:56:20.812Z,69.07
2022-12-24T21:58:49.653Z,70.35
2022-12-24T22:01:17.408Z,73.43
2022-12-24T22:03:45.429Z,70.03
2022-12-24T22:06:34.490Z,67.93
2022-12-24T22:09:19.669Z,69.85
2022-12-24T22:11:54.323Z,74.13
2022-12-24T22:14:22.487Z,65.30
2022-12-24T22:16:50.112Z,78.38
2022-12-24T22:19:17.723Z,69.88
2022-12-24T22:21:46.724Z,66.97
2022-12-24T22:24:14.279Z,64.40
2022-12-24T22:26:41.894Z,68.00
2022-12-24T22:29:09.504Z,70.90
2022-12-24T22:31:37.357Z,69.90
2022-12-24T22:34:05.008Z,67.97
2022-12-24T22:36:32.683Z,63.95
2022-12-24T22:39:01.642Z,69.60
2022-12-24T22:41:29.319Z,63.85
2022-12-24T22:43:57.053Z,67.13
2022-12-24T22:46:24.701Z,66.32
2022-12-24T22:48:52.290Z,64.38
2022-12-24T22:51:21.901Z,63.92
2022-12-24T22:53:50.033Z,66.85
2022-12-24T22:56:21.345Z,64.13
2022-12-24T22:58:49.729Z,69.63
2022-12-24T23:01:17.390Z,61.05
2022-12-24T23:03:45.123Z,58.20
2022-12-24T23:06:12.770Z,58.13
2022-12-24T23:08:40.422Z,64.60
2022-12-24T23:11:09.383Z,64.40
2022-12-24T23:13:57.882Z,64.18
2022-12-24T23:16:26.583Z,59.38
2022-12-24T23:18:54.459Z,68.32
2022-12-24T23:21:22.107Z,69.15
2022-12-24T23:23:50.024Z,59.13
2022-12-24T23:26:20.475Z,66.25
2022-12-24T23:28:49.377Z,64.93
2022-12-24T23:31:17.809Z,58.47
2022-12-24T23:33:45.714Z,62.17
2022-12-24T23:36:13.707Z,59.45
2022-12-24T23:38:41.318Z,61.70
2022-12-24T23:41:10.087Z,64.90
2022-12-24T23:43:38.831Z,58.40
2022-12-24T23:46:08.168Z,73.75
2022-12-24T23:48:36.737Z,61.83
2022-12-24T23:51:06.326Z,67.15
2022-12-24T23:53:33.944Z,67.15
2022-12-24T23:56:01.814Z,67.07
2022-12-24T23:58:29.489Z,59.45
